sensor_id;sensor_type;location;lat;lon;timestamp;P1;durP1;ratioP1;P2;durP2;ratioP2
77402;SDS011;66472;53.046;8.656;2023-04-03T00:00:52;4.30;;;3.80;;
77402;SDS011;66472;53.046;8.656;2023-04-03T00:06:01;7.40;;;4.87;;
77402;SDS011;66472;53.046;8.656;2023-04-03T00:10:56;5.03;;;4.60;;
77402;SDS011;66472;53.046;8.656;2023-04-03T00:15:52;5.10;;;4.67;;
77402;SDS011;66472;53.046;8.656;2023-04-03T00:20:47;4.93;;;4.40;;
77402;SDS011;66472;53.046;8.656;2023-04-03T00:25:43;4.90;;;4.50;;
77402;SDS011;66472;53.046;8.656;2023-04-03T00:30:38;8.17;;;5.50;;
77402;SDS011;66472;53.046;8.656;2023-04-03T00:35:33;5.40;;;4.35;;
77402;SDS011;66472;53.046;8.656;2023-04-03T00:40:32;5.40;;;5.00;;
77402;SDS011;66472;53.046;8.656;2023-04-03T00:45:37;7.27;;;4.43;;
77402;SDS011;66472;53.046;8.656;2023-04-03T00:50:34;7.47;;;4.73;;
77402;SDS011;66472;53.046;8.656;2023-04-03T00:55:30;5.40;;;4.07;;
77402;SDS011;66472;53.046;8.656;2023-04-03T01:00:26;4.73;;;4.33;;
77402;SDS011;66472;53.046;8.656;2023-04-03T01:05:22;6.63;;;5.37;;
77402;SDS011;66472;53.046;8.656;2023-04-03T01:10:17;7.90;;;4.83;;
77402;SDS011;66472;53.046;8.656;2023-04-03T01:15:16;5.47;;;4.67;;
77402;SDS011;66472;53.046;8.656;2023-04-03T01:25:08;4.93;;;4.40;;
77402;SDS011;66472;53.046;8.656;2023-04-03T01:30:04;8.97;;;5.27;;
77402;SDS011;66472;53.046;8.656;2023-04-03T01:34:59;9.97;;;4.80;;
77402;SDS011;66472;53.046;8.656;2023-04-03T01:39:55;6.30;;;4.93;;
77402;SDS011;66472;53.046;8.656;2023-04-03T01:44:50;7.03;;;5.20;;
77402;SDS011;66472;53.046;8.656;2023-04-03T01:49:46;8.57;;;4.67;;
77402;SDS011;66472;53.046;8.656;2023-04-03T01:54:41;4.33;;;4.03;;
77402;SDS011;66472;53.046;8.656;2023-04-03T01:59:37;9.10;;;5.00;;
77402;SDS011;66472;53.046;8.656;2023-04-03T02:04:32;5.70;;;4.77;;
77402;SDS011;66472;53.046;8.656;2023-04-03T02:09:27;5.17;;;4.50;;
77402;SDS011;66472;53.046;8.656;2023-04-03T02:14:23;5.70;;;5.20;;
77402;SDS011;66472;53.046;8.656;2023-04-03T02:19:18;5.67;;;5.30;;
77402;SDS011;66472;53.046;8.656;2023-04-03T02:24:14;7.13;;;5.43;;
77402;SDS011;66472;53.046;8.656;2023-04-03T02:29:09;5.07;;;4.63;;
77402;SDS011;66472;53.046;8.656;2023-04-03T02:34:04;5.50;;;5.00;;
77402;SDS011;66472;53.046;8.656;2023-04-03T02:39:00;5.90;;;5.17;;
77402;SDS011;66472;53.046;8.656;2023-04-03T02:43:56;5.53;;;5.10;;
77402;SDS011;66472;53.046;8.656;2023-04-03T02:48:51;6.23;;;5.27;;
77402;SDS011;66472;53.046;8.656;2023-04-03T02:53:48;6.53;;;5.10;;
77402;SDS011;66472;53.046;8.656;2023-04-03T02:58:48;7.13;;;5.87;;
77402;SDS011;66472;53.046;8.656;2023-04-03T03:03:45;6.13;;;5.73;;
77402;SDS011;66472;53.046;8.656;2023-04-03T03:08:41;10.93;;;5.20;;
77402;SDS011;66472;53.046;8.656;2023-04-03T03:13:37;5.90;;;5.13;;
77402;SDS011;66472;53.046;8.656;2023-04-03T03:18:32;5.77;;;5.20;;
77402;SDS011;66472;53.046;8.656;2023-04-03T03:23:29;7.30;;;4.60;;
77402;SDS011;66472;53.046;8.656;2023-04-03T03:28:25;7.70;;;5.17;;
77402;SDS011;66472;53.046;8.656;2023-04-03T03:33:20;8.03;;;5.17;;
77402;SDS011;66472;53.046;8.656;2023-04-03T03:38:16;11.17;;;5.03;;
77402;SDS011;66472;53.046;8.656;2023-04-03T03:43:11;6.67;;;4.97;;
77402;SDS011;66472;53.046;8.656;2023-04-03T03:48:06;11.07;;;5.50;;
77402;SDS011;66472;53.046;8.656;2023-04-03T03:53:02;5.83;;;5.07;;
77402;SDS011;66472;53.046;8.656;2023-04-03T03:57:58;5.30;;;4.90;;
77402;SDS011;66472;53.046;8.656;2023-04-03T04:02:57;6.20;;;5.53;;
77402;SDS011;66472;53.046;8.656;2023-04-03T04:07:54;5.93;;;5.13;;
77402;SDS011;66472;53.046;8.656;2023-04-03T04:12:50;5.27;;;4.80;;
77402;SDS011;66472;53.046;8.656;2023-04-03T04:17:48;10.30;;;5.17;;
77402;SDS011;66472;53.046;8.656;2023-04-03T04:22:44;10.47;;;5.53;;
77402;SDS011;66472;53.046;8.656;2023-04-03T04:27:40;6.70;;;6.07;;
77402;SDS011;66472;53.046;8.656;2023-04-03T04:32:36;7.30;;;4.97;;
77402;SDS011;66472;53.046;8.656;2023-04-03T04:37:33;6.00;;;5.50;;
77402;SDS011;66472;53.046;8.656;2023-04-03T04:42:28;7.87;;;6.20;;
77402;SDS011;66472;53.046;8.656;2023-04-03T04:47:24;6.70;;;6.07;;
77402;SDS011;66472;53.046;8.656;2023-04-03T04:52:20;11.23;;;6.33;;
77402;SDS011;66472;53.046;8.656;2023-04-03T04:57:16;11.87;;;6.77;;
77402;SDS011;66472;53.046;8.656;2023-04-03T05:02:11;6.03;;;5.60;;
77402;SDS011;66472;53.046;8.656;2023-04-03T05:07:09;11.17;;;7.63;;
77402;SDS011;66472;53.046;8.656;2023-04-03T05:12:06;7.80;;;7.00;;
77402;SDS011;66472;53.046;8.656;2023-04-03T05:17:08;7.07;;;6.47;;
77402;SDS011;66472;53.046;8.656;2023-04-03T05:22:07;6.90;;;6.27;;
77402;SDS011;66472;53.046;8.656;2023-04-03T05:27:03;9.70;;;6.87;;
77402;SDS011;66472;53.046;8.656;2023-04-03T05:32:02;7.37;;;6.57;;
77402;SDS011;66472;53.046;8.656;2023-04-03T05:36:57;12.33;;;6.60;;
77402;SDS011;66472;53.046;8.656;2023-04-03T05:41:54;6.20;;;5.43;;
77402;SDS011;66472;53.046;8.656;2023-04-03T05:46:51;6.67;;;6.10;;
77402;SDS011;66472;53.046;8.656;2023-04-03T05:51:46;11.10;;;6.20;;
77402;SDS011;66472;53.046;8.656;2023-04-03T05:56:51;6.30;;;5.80;;
77402;SDS011;66472;53.046;8.656;2023-04-03T06:01:48;8.57;;;6.40;;
77402;SDS011;66472;53.046;8.656;2023-04-03T06:11:42;5.87;;;5.20;;
77402;SDS011;66472;53.046;8.656;2023-04-03T06:16:37;6.73;;;6.13;;
77402;SDS011;66472;53.046;8.656;2023-04-03T06:21:36;9.60;;;5.83;;
77402;SDS011;66472;53.046;8.656;2023-04-03T06:26:32;6.90;;;4.83;;
77402;SDS011;66472;53.046;8.656;2023-04-03T06:31:28;6.00;;;5.40;;
77402;SDS011;66472;53.046;8.656;2023-04-03T06:36:23;9.93;;;4.87;;
77402;SDS011;66472;53.046;8.656;2023-04-03T06:41:19;6.10;;;5.33;;
77402;SDS011;66472;53.046;8.656;2023-04-03T06:46:16;7.20;;;5.03;;
77402;SDS011;66472;53.046;8.656;2023-04-03T06:51:17;7.17;;;5.03;;
77402;SDS011;66472;53.046;8.656;2023-04-03T06:56:17;5.47;;;4.93;;
77402;SDS011;66472;53.046;8.656;2023-04-03T07:01:12;6.10;;;3.90;;
77402;SDS011;66472;53.046;8.656;2023-04-03T07:06:09;6.10;;;4.90;;
77402;SDS011;66472;53.046;8.656;2023-04-03T07:11:06;7.23;;;5.67;;
77402;SDS011;66472;53.046;8.656;2023-04-03T07:16:02;7.27;;;4.63;;
77402;SDS011;66472;53.046;8.656;2023-04-03T07:20:58;6.03;;;3.70;;
77402;SDS011;66472;53.046;8.656;2023-04-03T07:25:54;5.40;;;4.20;;
77402;SDS011;66472;53.046;8.656;2023-04-03T07:30:50;4.03;;;3.73;;
77402;SDS011;66472;53.046;8.656;2023-04-03T07:35:46;4.27;;;3.90;;
77402;SDS011;66472;53.046;8.656;2023-04-03T07:40:45;3.90;;;3.60;;
77402;SDS011;66472;53.046;8.656;2023-04-03T07:45:40;4.13;;;3.83;;
77402;SDS011;66472;53.046;8.656;2023-04-03T07:50:36;3.60;;;3.30;;
77402;SDS011;66472;53.046;8.656;2023-04-03T07:55:32;5.87;;;3.30;;
77402;SDS011;66472;53.046;8.656;2023-04-03T08:00:27;3.40;;;3.10;;
77402;SDS011;66472;53.046;8.656;2023-04-03T08:05:22;3.47;;;3.17;;
77402;SDS011;66472;53.046;8.656;2023-04-03T08:10:17;4.53;;;2.83;;
77402;SDS011;66472;53.046;8.656;2023-04-03T08:15:13;4.95;;;3.13;;
77402;SDS011;66472;53.046;8.656;2023-04-03T08:20:09;3.20;;;2.90;;
77402;SDS011;66472;53.046;8.656;2023-04-03T08:25:05;4.20;;;3.13;;
77402;SDS011;66472;53.046;8.656;2023-04-03T08:30:00;3.40;;;3.10;;
77402;SDS011;66472;53.046;8.656;2023-04-03T08:34:56;5.07;;;2.97;;
77402;SDS011;66472;53.046;8.656;2023-04-03T08:39:51;3.83;;;2.63;;
77402;SDS011;66472;53.046;8.656;2023-04-03T08:44:48;3.03;;;2.83;;
77402;SDS011;66472;53.046;8.656;2023-04-03T08:49:48;4.20;;;3.37;;
77402;SDS011;66472;53.046;8.656;2023-04-03T08:54:51;5.73;;;2.83;;
77402;SDS011;66472;53.046;8.656;2023-04-03T08:59:47;4.70;;;2.50;;
77402;SDS011;66472;53.046;8.656;2023-04-03T09:04:43;2.70;;;2.50;;
77402;SDS011;66472;53.046;8.656;2023-04-03T09:09:42;3.53;;;2.53;;
77402;SDS011;66472;53.046;8.656;2023-04-03T09:14:39;3.10;;;2.80;;
77402;SDS011;66472;53.046;8.656;2023-04-03T09:19:47;3.87;;;2.80;;
77402;SDS011;66472;53.046;8.656;2023-04-03T09:25:02;5.17;;;2.60;;
77402;SDS011;66472;53.046;8.656;2023-04-03T09:29:59;2.63;;;2.43;;
77402;SDS011;66472;53.046;8.656;2023-04-03T09:35:03;5.47;;;2.80;;
77402;SDS011;66472;53.046;8.656;2023-04-03T09:40:00;2.93;;;2.73;;
77402;SDS011;66472;53.046;8.656;2023-04-03T09:45:00;4.27;;;3.17;;
77402;SDS011;66472;53.046;8.656;2023-04-03T10:00:25;3.60;;;3.30;;
77402;SDS011;66472;53.046;8.656;2023-04-03T10:05:54;2.83;;;2.53;;
77402;SDS011;66472;53.046;8.656;2023-04-03T10:10:44;3.40;;;3.20;;
77402;SDS011;66472;53.046;8.656;2023-04-03T10:15:44;3.10;;;2.90;;
77402;SDS011;66472;53.046;8.656;2023-04-03T10:20:43;4.27;;;3.67;;
77402;SDS011;66472;53.046;8.656;2023-04-03T10:41:02;4.23;;;3.10;;
77402;SDS011;66472;53.046;8.656;2023-04-03T10:46:02;3.43;;;3.07;;
77402;SDS011;66472;53.046;8.656;2023-04-03T10:51:01;2.93;;;2.83;;
77402;SDS011;66472;53.046;8.656;2023-04-03T10:56:10;2.80;;;2.60;;
77402;SDS011;66472;53.046;8.656;2023-04-03T11:01:13;2.67;;;2.47;;
77402;SDS011;66472;53.046;8.656;2023-04-03T11:06:12;3.83;;;2.87;;
77402;SDS011;66472;53.046;8.656;2023-04-03T11:11:14;2.93;;;2.70;;
77402;SDS011;66472;53.046;8.656;2023-04-03T11:16:15;2.80;;;2.60;;
77402;SDS011;66472;53.046;8.656;2023-04-03T11:21:19;3.20;;;3.00;;
77402;SDS011;66472;53.046;8.656;2023-04-03T11:26:18;3.13;;;2.60;;
77402;SDS011;66472;53.046;8.656;2023-04-03T11:36:30;2.60;;;2.50;;
77402;SDS011;66472;53.046;8.656;2023-04-03T11:41:29;4.53;;;2.80;;
77402;SDS011;66472;53.046;8.656;2023-04-03T11:46:48;4.10;;;3.20;;
77402;SDS011;66472;53.046;8.656;2023-04-03T11:51:45;3.33;;;2.53;;
77402;SDS011;66472;53.046;8.656;2023-04-03T11:56:41;2.87;;;2.67;;
77402;SDS011;66472;53.046;8.656;2023-04-03T12:01:47;3.80;;;2.80;;
77402;SDS011;66472;53.046;8.656;2023-04-03T12:11:42;5.70;;;2.83;;
77402;SDS011;66472;53.046;8.656;2023-04-03T12:31:49;3.67;;;3.03;;
77402;SDS011;66472;53.046;8.656;2023-04-03T12:46:52;4.27;;;3.10;;
77402;SDS011;66472;53.046;8.656;2023-04-03T12:51:48;4.53;;;2.90;;
77402;SDS011;66472;53.046;8.656;2023-04-03T12:56:44;3.20;;;3.00;;
77402;SDS011;66472;53.046;8.656;2023-04-03T13:01:39;3.37;;;2.93;;
77402;SDS011;66472;53.046;8.656;2023-04-03T13:06:39;3.20;;;3.00;;
77402;SDS011;66472;53.046;8.656;2023-04-03T13:11:39;2.90;;;2.67;;
77402;SDS011;66472;53.046;8.656;2023-04-03T13:16:36;3.07;;;2.87;;
77402;SDS011;66472;53.046;8.656;2023-04-03T13:21:32;7.00;;;3.63;;
77402;SDS011;66472;53.046;8.656;2023-04-03T13:26:30;4.47;;;3.50;;
77402;SDS011;66472;53.046;8.656;2023-04-03T13:31:29;3.67;;;3.47;;
77402;SDS011;66472;53.046;8.656;2023-04-03T13:36:28;3.70;;;3.40;;
77402;SDS011;66472;53.046;8.656;2023-04-03T13:41:34;4.97;;;4.50;;
77402;SDS011;66472;53.046;8.656;2023-04-03T13:46:30;4.13;;;3.83;;
77402;SDS011;66472;53.046;8.656;2023-04-03T13:51:27;3.43;;;3.23;;
77402;SDS011;66472;53.046;8.656;2023-04-03T13:56:30;3.23;;;2.93;;
77402;SDS011;66472;53.046;8.656;2023-04-03T14:01:26;6.60;;;3.33;;
77402;SDS011;66472;53.046;8.656;2023-04-03T14:06:28;4.20;;;3.90;;
77402;SDS011;66472;53.046;8.656;2023-04-03T14:11:26;3.77;;;3.47;;
77402;SDS011;66472;53.046;8.656;2023-04-03T14:16:23;3.70;;;3.40;;
77402;SDS011;66472;53.046;8.656;2023-04-03T14:21:21;4.70;;;4.27;;
77402;SDS011;66472;53.046;8.656;2023-04-03T14:26:18;4.40;;;3.60;;
77402;SDS011;66472;53.046;8.656;2023-04-03T14:31:14;4.37;;;3.23;;
77402;SDS011;66472;53.046;8.656;2023-04-03T14:36:12;3.60;;;3.30;;
77402;SDS011;66472;53.046;8.656;2023-04-03T14:41:07;3.03;;;2.70;;
77402;SDS011;66472;53.046;8.656;2023-04-03T14:46:08;4.40;;;2.80;;
77402;SDS011;66472;53.046;8.656;2023-04-03T14:51:06;3.13;;;2.83;;
77402;SDS011;66472;53.046;8.656;2023-04-03T14:56:01;4.03;;;3.60;;
77402;SDS011;66472;53.046;8.656;2023-04-03T15:00:56;3.60;;;3.30;;
77402;SDS011;66472;53.046;8.656;2023-04-03T15:05:51;3.40;;;3.10;;
77402;SDS011;66472;53.046;8.656;2023-04-03T15:10:47;5.00;;;2.63;;
77402;SDS011;66472;53.046;8.656;2023-04-03T15:15:43;7.37;;;2.87;;
77402;SDS011;66472;53.046;8.656;2023-04-03T15:20:40;3.57;;;3.27;;
77402;SDS011;66472;53.046;8.656;2023-04-03T15:25:36;6.53;;;3.93;;
77402;SDS011;66472;53.046;8.656;2023-04-03T15:30:40;3.10;;;2.80;;
77402;SDS011;66472;53.046;8.656;2023-04-03T15:35:36;3.13;;;2.80;;
77402;SDS011;66472;53.046;8.656;2023-04-03T15:40:31;2.93;;;2.73;;
77402;SDS011;66472;53.046;8.656;2023-04-03T15:45:30;3.93;;;3.50;;
77402;SDS011;66472;53.046;8.656;2023-04-03T15:50:26;3.67;;;3.27;;
77402;SDS011;66472;53.046;8.656;2023-04-03T15:55:21;3.90;;;3.70;;
77402;SDS011;66472;53.046;8.656;2023-04-03T16:00:17;4.40;;;3.23;;
77402;SDS011;66472;53.046;8.656;2023-04-03T16:05:13;3.70;;;3.33;;
77402;SDS011;66472;53.046;8.656;2023-04-03T16:10:11;3.20;;;2.97;;
77402;SDS011;66472;53.046;8.656;2023-04-03T16:15:08;4.57;;;2.80;;
77402;SDS011;66472;53.046;8.656;2023-04-03T16:20:05;3.47;;;3.03;;
77402;SDS011;66472;53.046;8.656;2023-04-03T16:25:03;4.07;;;3.40;;
77402;SDS011;66472;53.046;8.656;2023-04-03T16:30:01;6.97;;;2.80;;
77402;SDS011;66472;53.046;8.656;2023-04-03T16:34:58;4.30;;;3.10;;
77402;SDS011;66472;53.046;8.656;2023-04-03T16:39:55;3.50;;;3.30;;
77402;SDS011;66472;53.046;8.656;2023-04-03T16:44:54;3.27;;;2.97;;
77402;SDS011;66472;53.046;8.656;2023-04-03T16:49:49;3.43;;;3.23;;
77402;SDS011;66472;53.046;8.656;2023-04-03T16:54:44;3.43;;;3.23;;
77402;SDS011;66472;53.046;8.656;2023-04-03T16:59:40;3.30;;;3.10;;
77402;SDS011;66472;53.046;8.656;2023-04-03T17:04:35;4.00;;;3.60;;
77402;SDS011;66472;53.046;8.656;2023-04-03T17:09:30;3.43;;;3.13;;
77402;SDS011;66472;53.046;8.656;2023-04-03T17:14:26;4.97;;;3.30;;
77402;SDS011;66472;53.046;8.656;2023-04-03T17:19:21;3.70;;;3.40;;
77402;SDS011;66472;53.046;8.656;2023-04-03T17:24:18;3.97;;;3.53;;
77402;SDS011;66472;53.046;8.656;2023-04-03T17:29:13;4.10;;;3.30;;
77402;SDS011;66472;53.046;8.656;2023-04-03T17:34:09;4.57;;;3.33;;
77402;SDS011;66472;53.046;8.656;2023-04-03T17:39:11;3.63;;;3.40;;
77402;SDS011;66472;53.046;8.656;2023-04-03T17:44:55;5.67;;;3.80;;
77402;SDS011;66472;53.046;8.656;2023-04-03T17:50:32;3.90;;;3.43;;
77402;SDS011;66472;53.046;8.656;2023-04-03T17:55:28;5.53;;;3.63;;
77402;SDS011;66472;53.046;8.656;2023-04-03T18:00:23;4.60;;;4.10;;
77402;SDS011;66472;53.046;8.656;2023-04-03T18:05:19;3.67;;;3.37;;
77402;SDS011;66472;53.046;8.656;2023-04-03T18:10:14;3.60;;;3.33;;
77402;SDS011;66472;53.046;8.656;2023-04-03T18:15:10;4.77;;;3.93;;
77402;SDS011;66472;53.046;8.656;2023-04-03T18:20:06;3.70;;;3.40;;
77402;SDS011;66472;53.046;8.656;2023-04-03T18:25:03;4.43;;;4.03;;
77402;SDS011;66472;53.046;8.656;2023-04-03T18:29:59;5.53;;;3.40;;
77402;SDS011;66472;53.046;8.656;2023-04-03T18:34:55;6.43;;;4.30;;
77402;SDS011;66472;53.046;8.656;2023-04-03T18:39:51;4.30;;;3.90;;
77402;SDS011;66472;53.046;8.656;2023-04-03T18:44:47;5.43;;;4.00;;
77402;SDS011;66472;53.046;8.656;2023-04-03T18:49:43;7.37;;;4.23;;
77402;SDS011;66472;53.046;8.656;2023-04-03T18:54:38;5.00;;;4.43;;
77402;SDS011;66472;53.046;8.656;2023-04-03T18:59:35;5.73;;;5.10;;
77402;SDS011;66472;53.046;8.656;2023-04-03T19:04:31;7.03;;;4.87;;
77402;SDS011;66472;53.046;8.656;2023-04-03T19:09:27;6.60;;;4.90;;
77402;SDS011;66472;53.046;8.656;2023-04-03T19:14:22;5.00;;;4.37;;
77402;SDS011;66472;53.046;8.656;2023-04-03T19:19:17;5.07;;;4.00;;
77402;SDS011;66472;53.046;8.656;2023-04-03T19:24:13;4.00;;;3.70;;
77402;SDS011;66472;53.046;8.656;2023-04-03T19:29:09;3.63;;;3.33;;
77402;SDS011;66472;53.046;8.656;2023-04-03T19:34:04;4.13;;;3.77;;
77402;SDS011;66472;53.046;8.656;2023-04-03T19:39:00;3.90;;;3.60;;
77402;SDS011;66472;53.046;8.656;2023-04-03T19:43:56;4.20;;;3.57;;
77402;SDS011;66472;53.046;8.656;2023-04-03T19:48:51;12.93;;;4.27;;
77402;SDS011;66472;53.046;8.656;2023-04-03T19:53:47;4.43;;;3.77;;
77402;SDS011;66472;53.046;8.656;2023-04-03T19:58:42;6.27;;;4.13;;
77402;SDS011;66472;53.046;8.656;2023-04-03T20:03:38;3.13;;;2.93;;
77402;SDS011;66472;53.046;8.656;2023-04-03T20:08:36;3.50;;;3.20;;
77402;SDS011;66472;53.046;8.656;2023-04-03T20:13:33;4.07;;;3.50;;
77402;SDS011;66472;53.046;8.656;2023-04-03T20:18:28;2.80;;;2.60;;
77402;SDS011;66472;53.046;8.656;2023-04-03T20:23:24;3.00;;;2.80;;
77402;SDS011;66472;53.046;8.656;2023-04-03T20:28:21;3.23;;;3.03;;
77402;SDS011;66472;53.046;8.656;2023-04-03T20:33:17;3.10;;;2.90;;
77402;SDS011;66472;53.046;8.656;2023-04-03T20:38:13;3.30;;;3.10;;
77402;SDS011;66472;53.046;8.656;2023-04-03T20:43:08;3.03;;;2.70;;
77402;SDS011;66472;53.046;8.656;2023-04-03T20:48:04;3.30;;;2.80;;
77402;SDS011;66472;53.046;8.656;2023-04-03T20:53:00;4.07;;;3.07;;
77402;SDS011;66472;53.046;8.656;2023-04-03T20:57:57;2.97;;;2.63;;
77402;SDS011;66472;53.046;8.656;2023-04-03T21:02:55;3.97;;;2.93;;
77402;SDS011;66472;53.046;8.656;2023-04-03T21:23:27;2.63;;;2.43;;
77402;SDS011;66472;53.046;8.656;2023-04-03T21:28:23;4.10;;;2.70;;
77402;SDS011;66472;53.046;8.656;2023-04-03T21:33:19;2.93;;;2.47;;
77402;SDS011;66472;53.046;8.656;2023-04-03T21:38:14;5.27;;;3.10;;
77402;SDS011;66472;53.046;8.656;2023-04-03T21:43:09;6.57;;;2.57;;
77402;SDS011;66472;53.046;8.656;2023-04-03T21:48:04;3.58;;;2.92;;
77402;SDS011;66472;53.046;8.656;2023-04-03T21:53:01;2.27;;;2.17;;
77402;SDS011;66472;53.046;8.656;2023-04-03T21:57:56;5.70;;;2.70;;
77402;SDS011;66472;53.046;8.656;2023-04-03T22:02:52;3.37;;;2.80;;
77402;SDS011;66472;53.046;8.656;2023-04-03T22:07:48;3.97;;;3.00;;
77402;SDS011;66472;53.046;8.656;2023-04-03T22:12:43;4.00;;;2.87;;
77402;SDS011;66472;53.046;8.656;2023-04-03T22:17:38;2.60;;;2.28;;
77402;SDS011;66472;53.046;8.656;2023-04-03T22:22:34;6.33;;;3.73;;
77402;SDS011;66472;53.046;8.656;2023-04-03T22:27:29;3.00;;;2.77;;
77402;SDS011;66472;53.046;8.656;2023-04-03T22:32:25;3.23;;;3.00;;
77402;SDS011;66472;53.046;8.656;2023-04-03T22:37:21;2.47;;;2.27;;
77402;SDS011;66472;53.046;8.656;2023-04-03T22:42:16;3.87;;;2.40;;
77402;SDS011;66472;53.046;8.656;2023-04-03T22:47:12;2.67;;;2.37;;
77402;SDS011;66472;53.046;8.656;2023-04-03T22:52:07;3.22;;;2.90;;
77402;SDS011;66472;53.046;8.656;2023-04-03T22:57:02;3.27;;;2.33;;
77402;SDS011;66472;53.046;8.656;2023-04-03T23:01:58;10.07;;;3.27;;
77402;SDS011;66472;53.046;8.656;2023-04-03T23:06:53;3.33;;;3.00;;
77402;SDS011;66472;53.046;8.656;2023-04-03T23:11:48;2.95;;;2.75;;
77402;SDS011;66472;53.046;8.656;2023-04-03T23:16:44;3.10;;;2.80;;
77402;SDS011;66472;53.046;8.656;2023-04-03T23:21:40;6.80;;;3.13;;
77402;SDS011;66472;53.046;8.656;2023-04-03T23:26:36;5.03;;;3.03;;
77402;SDS011;66472;53.046;8.656;2023-04-03T23:31:31;6.75;;;4.10;;
77402;SDS011;66472;53.046;8.656;2023-04-03T23:36:26;3.22;;;2.97;;
77402;SDS011;66472;53.046;8.656;2023-04-03T23:41:21;3.25;;;2.88;;
77402;SDS011;66472;53.046;8.656;2023-04-03T23:46:17;6.23;;;3.47;;
77402;SDS011;66472;53.046;8.656;2023-04-03T23:51:13;5.80;;;3.73;;
77402;SDS011;66472;53.046;8.656;2023-04-03T23:56:09;3.50;;;2.53;;
